createdAt,value
2019-04-06T00:02:16.621Z,99.90
2019-04-06T00:04:45.186Z,99.90
2019-04-06T00:07:13.773Z,99.90
2019-04-06T00:09:42.334Z,99.90
2019-04-06T00:12:10.918Z,99.90
2019-04-06T00:14:39.466Z,99.90
2019-04-06T00:17:08.393Z,99.90
2019-04-06T00:19:36.944Z,99.90
2019-04-06T00:22:05.567Z,99.90
2019-04-06T00:24:34.147Z,99.90
2019-04-06T00:27:02.764Z,99.90
2019-04-06T00:29:31.338Z,99.90
2019-04-06T00:32:01.563Z,99.90
2019-04-06T00:34:30.127Z,99.90
2019-04-06T00:36:58.773Z,99.90
2019-04-06T00:39:27.256Z,99.90
2019-04-06T00:41:55.828Z,99.90
2019-04-06T00:44:24.312Z,99.90
2019-04-06T00:46:52.894Z,99.90
2019-04-06T00:49:21.372Z,99.90
2019-04-06T00:51:50.135Z,99.90
2019-04-06T00:54:18.713Z,99.90
2019-04-06T00:56:47.321Z,99.90
2019-04-06T00:59:15.836Z,99.90
2019-04-06T01:01:44.418Z,99.90
2019-04-06T01:04:12.972Z,99.90
2019-04-06T01:06:41.573Z,99.90
2019-04-06T01:09:10.126Z,99.90
2019-04-06T01:11:38.894Z,99.90
2019-04-06T01:14:07.469Z,99.90
2019-04-06T01:16:36.112Z,99.90
2019-04-06T01:19:04.766Z,99.90
2019-04-06T01:21:33.329Z,99.90
2019-04-06T01:24:01.902Z,99.90
2019-04-06T01:26:30.468Z,99.90
2019-04-06T01:28:58.973Z,99.90
2019-04-06T01:31:27.525Z,99.90
2019-04-06T01:33:56.102Z,99.90
2019-04-06T01:36:24.744Z,99.90
2019-04-06T01:38:53.323Z,99.90
2019-04-06T01:41:21.877Z,99.90
2019-04-06T01:43:50.472Z,99.90
2019-04-06T01:46:19.025Z,99.90
2019-04-06T01:48:47.596Z,99.90
2019-04-06T01:51:16.076Z,99.90
2019-04-06T01:53:44.663Z,99.90
2019-04-06T01:56:18.361Z,99.90
2019-04-06T01:58:43.440Z,99.90
2019-04-06T02:01:13.653Z,99.90
2019-04-06T02:03:42.153Z,99.90
2019-04-06T02:06:10.711Z,99.90
2019-04-06T02:08:39.289Z,99.90
2019-04-06T02:11:07.860Z,99.90
2019-04-06T02:13:36.436Z,99.90
2019-04-06T02:16:04.932Z,99.90
2019-04-06T02:18:33.498Z,99.90
2019-04-06T02:21:02.626Z,99.90
2019-04-06T02:23:31.212Z,99.90
2019-04-06T02:25:59.752Z,99.90
2019-04-06T02:28:28.262Z,99.90
2019-04-06T02:31:07.774Z,99.90
2019-04-06T02:33:43.699Z,99.90
2019-04-06T02:36:19.701Z,99.90
2019-04-06T02:38:50.002Z,99.90
2019-04-06T02:41:20.163Z,99.90
2019-04-06T02:43:48.745Z,99.90
2019-04-06T02:46:17.300Z,99.90
2019-04-06T02:48:45.890Z,99.90
2019-04-06T02:51:14.425Z,99.90
2019-04-06T02:53:43.128Z,99.90
2019-04-06T02:56:11.657Z,99.90
2019-04-06T02:58:40.322Z,99.90
2019-04-06T03:01:08.879Z,99.90
2019-04-06T03:03:37.665Z,99.90
2019-04-06T03:06:06.257Z,99.90
2019-04-06T03:08:34.745Z,99.90
2019-04-06T03:11:03.343Z,99.90
2019-04-06T03:13:31.884Z,99.90
2019-04-06T03:16:00.467Z,99.90
2019-04-06T03:18:29.029Z,99.90
2019-04-06T03:20:57.606Z,99.90
2019-04-06T03:23:26.150Z,99.90
2019-04-06T03:25:54.737Z,99.90
2019-04-06T03:28:23.314Z,99.90
2019-04-06T03:30:51.901Z,99.90
2019-04-06T03:33:20.519Z,99.90
2019-04-06T03:35:50.541Z,99.90
2019-04-06T03:38:19.553Z,99.90
2019-04-06T03:40:48.115Z,99.90
2019-04-06T03:43:16.683Z,99.90
2019-04-06T03:45:45.269Z,99.90
2019-04-06T03:48:13.826Z,99.90
2019-04-06T03:50:42.413Z,99.90
2019-04-06T03:53:10.978Z,99.90
2019-04-06T03:55:39.632Z,99.90
2019-04-06T03:58:08.203Z,99.90
2019-04-06T04:00:36.785Z,99.90
2019-04-06T04:03:05.410Z,99.90
2019-04-06T04:05:34.013Z,99.90
2019-04-06T04:08:02.565Z,99.90
2019-04-06T04:10:36.350Z,99.90
2019-04-06T04:13:05.627Z,99.90
2019-04-06T04:15:34.586Z,99.90
2019-04-06T04:18:03.207Z,99.90
2019-04-06T04:20:31.824Z,99.90
2019-04-06T04:23:00.383Z,99.90
2019-04-06T04:25:28.964Z,99.90
2019-04-06T04:27:57.539Z,99.90
2019-04-06T04:30:32.942Z,99.90
2019-04-06T04:32:56.463Z,99.90
2019-04-06T04:35:25.085Z,99.90
2019-04-06T04:37:53.630Z,99.90
2019-04-06T04:40:22.214Z,99.90
2019-04-06T04:42:50.703Z,99.90
2019-04-06T04:45:19.294Z,99.90
2019-04-06T04:47:50.146Z,99.90
2019-04-06T04:50:18.106Z,99.90
2019-04-06T04:52:46.664Z,99.90
2019-04-06T04:55:15.322Z,99.90
2019-04-06T04:57:45.387Z,99.90
2019-04-06T05:00:14.651Z,99.90
2019-04-06T05:02:43.205Z,99.90
2019-04-06T05:05:12.193Z,99.90
2019-04-06T05:07:40.770Z,99.90
2019-04-06T05:10:09.570Z,99.90
2019-04-06T05:12:38.148Z,99.90
2019-04-06T05:15:12.601Z,99.90
2019-04-06T05:17:41.126Z,99.90
2019-04-06T05:20:10.179Z,99.90
2019-04-06T05:22:38.710Z,99.90
2019-04-06T05:25:08.308Z,99.90
2019-04-06T05:27:37.028Z,99.90
2019-04-06T05:30:08.301Z,99.90
2019-04-06T05:32:37.124Z,99.90
2019-04-06T05:35:06.358Z,99.90
2019-04-06T05:37:34.929Z,99.90
2019-04-06T05:40:04.288Z,99.90
2019-04-06T05:42:32.806Z,99.90
2019-04-06T05:45:01.531Z,99.90
2019-04-06T05:47:30.050Z,99.90
2019-04-06T05:49:58.611Z,99.90
2019-04-06T05:52:27.138Z,99.50
2019-04-06T05:54:55.689Z,98.80
2019-04-06T05:57:24.284Z,98.70
2019-04-06T05:59:52.827Z,98.70
2019-04-06T06:02:21.420Z,98.80
2019-04-06T06:04:49.982Z,98.50
2019-04-06T06:07:18.562Z,98.50
2019-04-06T06:09:47.139Z,98.20
2019-04-06T06:12:15.907Z,98.20
2019-04-06T06:14:44.441Z,97.80
2019-04-06T06:17:14.334Z,97.40
2019-04-06T06:19:43.096Z,97.30
2019-04-06T06:22:11.681Z,97.20
2019-04-06T06:24:40.249Z,97.10
2019-04-06T06:27:08.837Z,97.10
2019-04-06T06:29:37.407Z,97.20
2019-04-06T06:32:06.073Z,96.90
2019-04-06T06:34:34.613Z,97.20
2019-04-06T06:37:03.185Z,96.20
2019-04-06T06:39:31.738Z,95.90
2019-04-06T06:42:00.381Z,96.00
2019-04-06T06:44:29.155Z,95.40
2019-04-06T06:46:57.865Z,95.50
2019-04-06T06:49:26.361Z,95.50
2019-04-06T06:51:54.975Z,94.70
2019-04-06T06:54:23.478Z,94.50
2019-04-06T06:56:52.129Z,94.20
2019-04-06T06:59:20.685Z,94.50
2019-04-06T07:01:49.194Z,94.20
2019-04-06T07:04:17.745Z,94.20
2019-04-06T07:06:46.316Z,93.90
2019-04-06T07:09:14.790Z,93.60
2019-04-06T07:11:43.341Z,93.90
2019-04-06T07:14:11.943Z,93.80
2019-04-06T07:16:40.486Z,93.80
2019-04-06T07:19:09.073Z,93.30
2019-04-06T07:21:37.542Z,92.70
2019-04-06T07:24:06.177Z,93.00
2019-04-06T07:26:34.722Z,93.10
2019-04-06T07:29:03.331Z,92.70
2019-04-06T07:31:31.849Z,92.70
2019-04-06T07:34:00.440Z,92.60
2019-04-06T07:36:28.985Z,92.60
2019-04-06T07:38:57.482Z,93.20
2019-04-06T07:41:26.025Z,92.60
2019-04-06T07:43:54.703Z,92.80
2019-04-06T07:46:23.257Z,92.90
2019-04-06T07:48:51.762Z,92.90
2019-04-06T07:51:20.336Z,92.60
2019-04-06T07:53:48.883Z,92.20
2019-04-06T07:56:17.441Z,91.80
2019-04-06T07:58:49.387Z,91.30
2019-04-06T08:01:16.241Z,91.60
2019-04-06T08:03:44.801Z,91.60
2019-04-06T08:06:13.358Z,90.90
2019-04-06T08:08:42.075Z,90.50
2019-04-06T08:11:10.644Z,91.10
2019-04-06T08:13:39.227Z,91.80
2019-04-06T08:16:07.851Z,91.40
2019-04-06T08:18:41.099Z,91.40
2019-04-06T08:21:09.958Z,92.00
2019-04-06T08:23:38.758Z,91.90
2019-04-06T08:26:07.427Z,91.80
2019-04-06T08:28:35.994Z,91.60
2019-04-06T08:31:04.616Z,91.60
2019-04-06T08:33:33.201Z,91.70
2019-04-06T08:36:01.757Z,91.70
2019-04-06T08:38:30.411Z,91.80
2019-04-06T08:40:58.940Z,91.90
2019-04-06T08:43:27.593Z,92.00
2019-04-06T08:45:56.140Z,91.30
2019-04-06T08:48:24.695Z,91.20
2019-04-06T08:50:53.321Z,90.70
2019-04-06T08:53:21.911Z,90.60
2019-04-06T08:55:50.455Z,90.30
2019-04-06T08:58:19.113Z,90.40
2019-04-06T09:00:47.594Z,90.10
2019-04-06T09:03:16.200Z,90.10
2019-04-06T09:05:44.786Z,89.30
2019-04-06T09:08:13.365Z,90.10
2019-04-06T09:10:42.082Z,90.30
2019-04-06T09:13:10.737Z,88.90
2019-04-06T09:15:39.486Z,88.20
2019-04-06T09:18:08.075Z,88.00
2019-04-06T09:20:36.671Z,87.80
2019-04-06T09:23:05.303Z,84.80
2019-04-06T09:25:33.834Z,84.10
2019-04-06T09:28:02.460Z,81.60
2019-04-06T09:30:31.031Z,79.20
2019-04-06T09:32:59.629Z,75.60
2019-04-06T09:35:28.207Z,77.00
2019-04-06T09:37:59.329Z,75.60
2019-04-06T09:40:28.361Z,73.90
2019-04-06T09:42:57.094Z,74.90
2019-04-06T09:45:41.416Z,74.10
2019-04-06T09:48:27.233Z,74.10
2019-04-06T09:51:15.257Z,71.20
2019-04-06T09:53:45.988Z,66.50
2019-04-06T09:56:22.494Z,63.20
2019-04-06T09:59:04.656Z,59.90
2019-04-06T10:01:38.862Z,52.20
2019-04-06T10:04:18.690Z,49.60
2019-04-06T10:07:00.418Z,49.40
2019-04-06T10:09:45.334Z,56.90
2019-04-06T10:12:15.625Z,62.60
2019-04-06T10:15:09.426Z,69.30
2019-04-06T10:17:57.345Z,75.50
2019-04-06T10:20:39.748Z,75.70
2019-04-06T10:23:26.193Z,77.60
2019-04-06T10:25:59.479Z,77.90
2019-04-06T10:28:32.303Z,77.30
2019-04-06T10:31:05.357Z,77.10
2019-04-06T10:33:51.275Z,69.90
2019-04-06T10:36:24.571Z,67.40
2019-04-06T10:39:09.433Z,66.90
2019-04-06T10:41:42.448Z,67.40
2019-04-06T10:44:15.381Z,64.00
2019-04-06T10:46:50.586Z,61.20
2019-04-06T10:49:35.571Z,63.40
2019-04-06T10:52:09.531Z,67.20
2019-04-06T10:54:55.833Z,69.50
2019-04-06T10:57:42.379Z,72.10
2019-04-06T11:00:29.172Z,71.10
2019-04-06T11:03:05.374Z,70.40
2019-04-06T11:05:41.647Z,69.30
2019-04-06T11:08:17.637Z,64.60
2019-04-06T11:11:01.192Z,65.40
2019-04-06T11:13:43.428Z,66.80
2019-04-06T11:16:13.807Z,69.70
2019-04-06T11:18:49.567Z,72.00
2019-04-06T11:21:20.200Z,72.80
2019-04-06T11:24:06.504Z,72.50
2019-04-06T11:26:36.737Z,74.60
2019-04-06T11:29:09.964Z,72.40
2019-04-06T11:31:42.633Z,73.70
2019-04-06T11:34:28.755Z,73.40
2019-04-06T11:37:04.833Z,73.20
2019-04-06T11:39:51.287Z,71.80
2019-04-06T11:42:37.475Z,68.90
2019-04-06T11:45:11.480Z,67.60
2019-04-06T11:47:53.567Z,70.20
2019-04-06T11:50:26.519Z,70.70
2019-04-06T11:52:58.872Z,72.30
2019-04-06T11:55:29.110Z,73.40
2019-04-06T11:58:08.178Z,72.10
2019-04-06T12:00:44.425Z,71.20
2019-04-06T12:03:23.482Z,70.90
2019-04-06T12:05:53.631Z,72.30
2019-04-06T12:08:26.724Z,72.70
2019-04-06T12:11:14.935Z,72.20
2019-04-06T12:14:00.814Z,73.50
2019-04-06T12:16:33.700Z,72.90
2019-04-06T12:19:21.271Z,72.90
2019-04-06T12:21:51.502Z,73.00
2019-04-06T12:24:33.735Z,71.70
2019-04-06T12:27:13.083Z,70.20
2019-04-06T12:29:43.299Z,68.30
2019-04-06T12:32:25.631Z,68.80
2019-04-06T12:34:58.710Z,69.30
2019-04-06T12:37:28.973Z,67.50
2019-04-06T12:39:59.198Z,67.40
2019-04-06T12:42:45.711Z,66.00
2019-04-06T12:45:18.684Z,66.20
2019-04-06T12:48:04.946Z,68.00
2019-04-06T12:50:47.190Z,68.20
2019-04-06T12:53:26.069Z,67.60
2019-04-06T12:56:02.262Z,64.90
2019-04-06T12:58:38.480Z,61.40
2019-04-06T13:01:26.515Z,62.40
2019-04-06T13:04:11.741Z,60.90
2019-04-06T13:06:57.989Z,59.50
2019-04-06T13:09:40.033Z,61.70
2019-04-06T13:12:10.251Z,62.10
2019-04-06T13:14:55.675Z,62.20
2019-04-06T13:17:31.419Z,60.30
2019-04-06T13:20:10.503Z,59.70
2019-04-06T13:22:43.136Z,62.30
2019-04-06T13:25:29.584Z,61.70
2019-04-06T13:28:02.366Z,62.50
2019-04-06T13:30:47.458Z,59.10
2019-04-06T13:33:20.462Z,58.40
2019-04-06T13:35:50.686Z,59.50
2019-04-06T13:38:36.674Z,59.30
2019-04-06T13:41:16.204Z,59.10
2019-04-06T13:43:49.072Z,57.80
2019-04-06T13:46:24.651Z,59.10
2019-04-06T13:49:09.914Z,60.00
2019-04-06T13:51:40.402Z,60.00
2019-04-06T13:54:10.651Z,59.80
2019-04-06T13:56:49.495Z,58.60
2019-04-06T13:59:19.714Z,58.80
2019-04-06T14:01:49.957Z,58.10
2019-04-06T14:04:39.328Z,58.70
2019-04-06T14:07:18.563Z,58.70
2019-04-06T14:09:54.510Z,57.50
2019-04-06T14:12:40.474Z,57.70
2019-04-06T14:15:28.428Z,58.80
2019-04-06T14:18:10.550Z,58.80
2019-04-06T14:20:56.985Z,58.60
2019-04-06T14:23:27.463Z,56.90
2019-04-06T14:25:57.634Z,57.30
2019-04-06T14:28:43.948Z,57.00
2019-04-06T14:31:29.607Z,57.70
2019-04-06T14:34:14.102Z,57.70
2019-04-06T14:36:50.610Z,57.90
2019-04-06T14:39:20.882Z,58.50
2019-04-06T14:41:57.037Z,59.70
2019-04-06T14:44:32.973Z,57.10
2019-04-06T14:47:11.893Z,58.30
2019-04-06T14:49:58.094Z,58.90
2019-04-06T14:52:44.830Z,59.00
2019-04-06T14:55:17.979Z,58.60
2019-04-06T14:57:48.179Z,57.90
2019-04-06T15:00:24.541Z,59.20
2019-04-06T15:03:00.399Z,58.50
2019-04-06T15:05:36.582Z,58.70
2019-04-06T15:08:07.067Z,58.90
2019-04-06T15:10:37.434Z,59.80
2019-04-06T15:13:10.253Z,59.50
2019-04-06T15:15:45.657Z,60.50
2019-04-06T15:18:31.857Z,59.80
2019-04-06T15:21:11.198Z,60.10
2019-04-06T15:23:46.962Z,60.90
2019-04-06T15:26:17.208Z,61.10
2019-04-06T15:29:02.482Z,61.20
2019-04-06T15:31:51.075Z,60.40
2019-04-06T15:34:32.719Z,60.50
2019-04-06T15:37:17.997Z,59.50
2019-04-06T15:40:06.185Z,59.90
2019-04-06T15:42:48.022Z,59.60
2019-04-06T15:45:34.061Z,59.30
2019-04-06T15:48:19.081Z,59.20
2019-04-06T15:50:49.239Z,60.10
2019-04-06T15:53:31.904Z,61.00
2019-04-06T15:56:02.090Z,59.70
2019-04-06T15:58:32.241Z,60.10
2019-04-06T16:01:20.523Z,59.00
2019-04-06T16:04:06.644Z,59.80
2019-04-06T16:06:37.264Z,59.30
2019-04-06T16:09:10.873Z,60.00
2019-04-06T16:11:44.143Z,60.10
2019-04-06T16:14:28.853Z,59.30
2019-04-06T16:16:59.082Z,59.80
2019-04-06T16:19:45.193Z,59.70
2019-04-06T16:22:30.478Z,61.00
2019-04-06T16:25:00.613Z,61.50
2019-04-06T16:27:30.829Z,61.30
2019-04-06T16:30:17.802Z,61.30
2019-04-06T16:32:54.299Z,62.00
2019-04-06T16:35:30.543Z,63.10
2019-04-06T16:38:09.689Z,64.30
2019-04-06T16:40:39.906Z,64.20
2019-04-06T16:43:19.248Z,64.90
2019-04-06T16:46:01.569Z,65.40
2019-04-06T16:48:50.279Z,65.00
2019-04-06T16:51:26.293Z,66.10
2019-04-06T16:54:02.420Z,67.00
2019-04-06T16:56:39.085Z,67.80
2019-04-06T16:59:15.448Z,68.30
2019-04-06T17:01:45.636Z,69.10
2019-04-06T17:04:27.966Z,69.70
2019-04-06T17:06:58.203Z,70.30
2019-04-06T17:09:28.738Z,70.80
2019-04-06T17:11:59.257Z,71.60
2019-04-06T17:14:32.559Z,71.90
2019-04-06T17:17:18.775Z,72.20
2019-04-06T17:19:57.759Z,72.90
2019-04-06T17:22:28.149Z,73.30
2019-04-06T17:25:14.662Z,73.70
2019-04-06T17:27:47.830Z,74.80
2019-04-06T17:30:24.121Z,75.40
2019-04-06T17:33:03.056Z,75.70
2019-04-06T17:35:33.471Z,76.30
2019-04-06T17:38:06.454Z,76.80
2019-04-06T17:40:36.700Z,77.10
2019-04-06T17:43:15.785Z,77.70
2019-04-06T17:45:48.906Z,77.80
2019-04-06T17:48:21.648Z,78.30
2019-04-06T17:50:57.368Z,79.50
2019-04-06T17:53:39.046Z,80.90
2019-04-06T17:56:12.027Z,82.10
2019-04-06T17:58:58.267Z,83.00
2019-04-06T18:01:34.373Z,84.10
2019-04-06T18:04:19.482Z,85.30
2019-04-06T18:06:52.910Z,86.00
2019-04-06T18:09:31.888Z,86.70
2019-04-06T18:12:20.345Z,87.20
2019-04-06T18:14:48.888Z,87.20
2019-04-06T18:17:17.633Z,87.40
2019-04-06T18:19:46.502Z,87.20
2019-04-06T18:22:15.166Z,87.40
2019-04-06T18:24:43.761Z,88.00
2019-04-06T18:27:12.319Z,88.50
2019-04-06T18:29:41.071Z,89.00
2019-04-06T18:32:11.226Z,89.30
2019-04-06T18:34:42.631Z,89.70
2019-04-06T18:37:21.615Z,90.10
2019-04-06T18:39:51.849Z,90.10
2019-04-06T18:42:20.838Z,90.60
2019-04-06T18:44:49.823Z,90.80
2019-04-06T18:47:18.368Z,91.30
2019-04-06T18:49:46.871Z,91.50
2019-04-06T18:52:15.418Z,91.90
2019-04-06T18:54:44.001Z,92.20
2019-04-06T18:57:12.717Z,92.20
2019-04-06T18:59:41.361Z,92.30
2019-04-06T19:02:09.927Z,92.40
2019-04-06T19:04:38.516Z,92.50
2019-04-06T19:07:07.358Z,92.80
2019-04-06T19:09:36.015Z,93.30
2019-04-06T19:12:04.642Z,93.10
2019-04-06T19:14:33.238Z,93.40
2019-04-06T19:17:01.819Z,93.70
2019-04-06T19:19:30.772Z,93.80
2019-04-06T19:21:59.387Z,94.30
2019-04-06T19:24:28.057Z,94.20
2019-04-06T19:26:56.635Z,94.30
2019-04-06T19:29:25.233Z,94.70
2019-04-06T19:31:53.785Z,94.90
2019-04-06T19:34:22.361Z,95.10
2019-04-06T19:36:50.980Z,95.20
2019-04-06T19:39:19.780Z,95.40
2019-04-06T19:41:48.354Z,95.30
2019-04-06T19:44:16.874Z,95.30
2019-04-06T19:46:45.445Z,95.30
2019-04-06T19:49:14.244Z,95.60
2019-04-06T19:51:43.022Z,95.60
2019-04-06T19:54:11.977Z,95.60
2019-04-06T19:56:40.788Z,95.60
2019-04-06T19:59:12.567Z,95.80
2019-04-06T20:01:40.121Z,96.10
2019-04-06T20:04:08.699Z,95.80
2019-04-06T20:06:37.388Z,96.00
2019-04-06T20:09:07.696Z,95.80
2019-04-06T20:11:36.374Z,95.70
2019-04-06T20:14:05.220Z,96.00
2019-04-06T20:16:34.067Z,96.00
2019-04-06T20:19:02.650Z,96.10
2019-04-06T20:21:31.219Z,96.00
2019-04-06T20:24:00.552Z,96.10
2019-04-06T20:26:31.576Z,95.80
2019-04-06T20:28:59.404Z,95.90
2019-04-06T20:31:28.857Z,96.10
2019-04-06T20:33:57.510Z,96.10
2019-04-06T20:36:26.233Z,96.00
2019-04-06T20:38:54.922Z,95.90
2019-04-06T20:41:23.495Z,95.80
2019-04-06T20:43:52.079Z,95.50
2019-04-06T20:46:20.709Z,95.70
2019-04-06T20:48:49.289Z,95.60
2019-04-06T20:51:18.017Z,95.40
2019-04-06T20:53:46.534Z,95.20
2019-04-06T20:56:15.077Z,95.50
2019-04-06T20:58:44.058Z,95.80
2019-04-06T21:01:13.006Z,95.80
2019-04-06T21:03:41.618Z,96.00
2019-04-06T21:06:10.186Z,96.30
2019-04-06T21:08:39.078Z,96.20
2019-04-06T21:11:08.313Z,96.40
2019-04-06T21:13:36.874Z,96.70
2019-04-06T21:16:05.759Z,96.70
2019-04-06T21:18:34.299Z,96.80
2019-04-06T21:21:03.017Z,96.90
2019-04-06T21:23:32.062Z,96.80
2019-04-06T21:26:00.749Z,96.80
2019-04-06T21:28:29.896Z,96.80
2019-04-06T21:30:58.656Z,96.70
2019-04-06T21:33:27.570Z,96.70
2019-04-06T21:35:56.155Z,96.80
2019-04-06T21:38:25.138Z,97.00
2019-04-06T21:40:53.705Z,97.10
2019-04-06T21:43:22.452Z,96.90
2019-04-06T21:45:51.155Z,96.90
2019-04-06T21:48:19.744Z,96.60
2019-04-06T21:50:48.271Z,96.30
2019-04-06T21:53:17.273Z,96.00
2019-04-06T21:55:45.974Z,95.40
2019-04-06T21:58:14.502Z,95.10
2019-04-06T22:00:44.897Z,94.90
2019-04-06T22:03:13.904Z,94.70
2019-04-06T22:05:42.489Z,94.70
2019-04-06T22:08:11.039Z,94.80
2019-04-06T22:10:39.618Z,94.70
2019-04-06T22:13:08.365Z,94.60
2019-04-06T22:15:37.179Z,94.60
2019-04-06T22:18:06.187Z,94.60
2019-04-06T22:20:35.534Z,94.40
2019-04-06T22:23:04.194Z,94.40
2019-04-06T22:25:33.442Z,94.10
2019-04-06T22:28:02.045Z,94.10
2019-04-06T22:30:30.666Z,93.90
2019-04-06T22:32:59.229Z,93.80
2019-04-06T22:35:28.367Z,93.70
2019-04-06T22:37:56.973Z,93.80
2019-04-06T22:40:25.644Z,93.70
2019-04-06T22:42:54.150Z,93.90
2019-04-06T22:45:24.409Z,93.80
2019-04-06T22:47:53.230Z,94.00
2019-04-06T22:50:22.065Z,93.60
2019-04-06T22:52:50.627Z,93.40
2019-04-06T22:55:19.303Z,93.40
2019-04-06T22:57:47.874Z,93.60
2019-04-06T23:00:27.505Z,93.70
2019-04-06T23:02:57.670Z,93.60
2019-04-06T23:05:27.920Z,92.90
2019-04-06T23:07:56.476Z,92.50
2019-04-06T23:10:25.085Z,92.10
2019-04-06T23:12:54.126Z,92.30
2019-04-06T23:15:23.266Z,92.60
2019-04-06T23:17:52.099Z,92.50
2019-04-06T23:20:21.772Z,92.30
2019-04-06T23:22:50.329Z,92.30
2019-04-06T23:25:18.915Z,92.10
2019-04-06T23:27:47.841Z,92.10
2019-04-06T23:30:16.910Z,91.90
2019-04-06T23:32:45.589Z,91.50
2019-04-06T23:35:14.194Z,91.30
2019-04-06T23:37:42.674Z,91.30
2019-04-06T23:40:11.297Z,91.30
2019-04-06T23:42:40.404Z,91.40
2019-04-06T23:45:09.176Z,91.60
2019-04-06T23:47:37.756Z,91.80
2019-04-06T23:50:07.604Z,91.80
2019-04-06T23:52:36.490Z,92.20
2019-04-06T23:55:08.350Z,92.60
2019-04-06T23:57:37.245Z,92.50
